sensor_id;sensor_type;location;lat;lon;timestamp;P1;durP1;ratioP1;P2;durP2;ratioP2
50367;SDS011;36281;34.132;-118.018;2023-05-10T00:00:31;9.35;;;4.88;;
50367;SDS011;36281;34.132;-118.018;2023-05-10T00:03:04;8.98;;;4.93;;
50367;SDS011;36281;34.132;-118.018;2023-05-10T00:05:33;8.93;;;5.22;;
50367;SDS011;36281;34.132;-118.018;2023-05-10T00:08:02;6.20;;;4.63;;
50367;SDS011;36281;34.132;-118.018;2023-05-10T00:10:32;7.05;;;4.25;;
50367;SDS011;36281;34.132;-118.018;2023-05-10T00:13:01;8.23;;;4.15;;
50367;SDS011;36281;34.132;-118.018;2023-05-10T00:15:34;8.35;;;4.35;;
50367;SDS011;36281;34.132;-118.018;2023-05-10T00:18:03;9.05;;;4.70;;
50367;SDS011;36281;34.132;-118.018;2023-05-10T00:20:33;8.10;;;4.30;;
50367;SDS011;36281;34.132;-118.018;2023-05-10T00:23:02;8.45;;;4.65;;
50367;SDS011;36281;34.132;-118.018;2023-05-10T00:25:31;7.35;;;3.70;;
50367;SDS011;36281;34.132;-118.018;2023-05-10T00:28:00;6.43;;;3.75;;
50367;SDS011;36281;34.132;-118.018;2023-05-10T00:30:29;9.32;;;4.35;;
50367;SDS011;36281;34.132;-118.018;2023-05-10T00:33:00;6.53;;;4.10;;
50367;SDS011;36281;34.132;-118.018;2023-05-10T00:35:29;8.85;;;4.32;;
50367;SDS011;36281;34.132;-118.018;2023-05-10T00:37:58;10.35;;;4.28;;
50367;SDS011;36281;34.132;-118.018;2023-05-10T00:40:27;6.72;;;4.25;;
50367;SDS011;36281;34.132;-118.018;2023-05-10T00:42:58;11.35;;;4.82;;
50367;SDS011;36281;34.132;-118.018;2023-05-10T00:45:28;14.00;;;4.18;;
50367;SDS011;36281;34.132;-118.018;2023-05-10T00:47:57;12.43;;;3.88;;
50367;SDS011;36281;34.132;-118.018;2023-05-10T00:50:30;7.60;;;3.85;;
50367;SDS011;36281;34.132;-118.018;2023-05-10T00:53:00;8.98;;;4.22;;
50367;SDS011;36281;34.132;-118.018;2023-05-10T00:55:30;8.40;;;3.90;;
50367;SDS011;36281;34.132;-118.018;2023-05-10T00:57:59;7.22;;;3.95;;
50367;SDS011;36281;34.132;-118.018;2023-05-10T01:00:32;9.35;;;4.10;;
50367;SDS011;36281;34.132;-118.018;2023-05-10T01:03:03;10.52;;;4.32;;
50367;SDS011;36281;34.132;-118.018;2023-05-10T01:05:32;10.02;;;4.05;;
50367;SDS011;36281;34.132;-118.018;2023-05-10T01:08:02;9.50;;;3.92;;
50367;SDS011;36281;34.132;-118.018;2023-05-10T01:10:31;8.90;;;3.97;;
50367;SDS011;36281;34.132;-118.018;2023-05-10T01:13:00;5.68;;;3.55;;
50367;SDS011;36281;34.132;-118.018;2023-05-10T01:15:30;6.80;;;3.72;;
50367;SDS011;36281;34.132;-118.018;2023-05-10T01:18:00;7.45;;;3.88;;
50367;SDS011;36281;34.132;-118.018;2023-05-10T01:20:35;9.65;;;3.90;;
50367;SDS011;36281;34.132;-118.018;2023-05-10T01:23:16;7.50;;;3.50;;
50367;SDS011;36281;34.132;-118.018;2023-05-10T01:29:11;9.23;;;3.75;;
50367;SDS011;36281;34.132;-118.018;2023-05-10T01:34:55;11.00;;;3.85;;
50367;SDS011;36281;34.132;-118.018;2023-05-10T01:40:13;8.07;;;3.45;;
50367;SDS011;36281;34.132;-118.018;2023-05-10T01:42:51;8.55;;;3.42;;
50367;SDS011;36281;34.132;-118.018;2023-05-10T01:45:26;6.95;;;3.22;;
50367;SDS011;36281;34.132;-118.018;2023-05-10T01:48:04;6.85;;;3.38;;
50367;SDS011;36281;34.132;-118.018;2023-05-10T01:50:35;9.03;;;4.13;;
50367;SDS011;36281;34.132;-118.018;2023-05-10T01:53:07;7.25;;;3.22;;
50367;SDS011;36281;34.132;-118.018;2023-05-10T01:55:40;10.27;;;3.45;;
50367;SDS011;36281;34.132;-118.018;2023-05-10T01:58:15;4.00;;;3.35;;
50367;SDS011;36281;34.132;-118.018;2023-05-10T02:00:49;5.68;;;3.13;;
50367;SDS011;36281;34.132;-118.018;2023-05-10T02:03:23;7.35;;;3.20;;
50367;SDS011;36281;34.132;-118.018;2023-05-10T02:05:54;4.80;;;3.08;;
50367;SDS011;36281;34.132;-118.018;2023-05-10T02:08:24;5.28;;;3.10;;
50367;SDS011;36281;34.132;-118.018;2023-05-10T02:10:54;5.93;;;3.03;;
50367;SDS011;36281;34.132;-118.018;2023-05-10T02:13:24;6.97;;;3.05;;
50367;SDS011;36281;34.132;-118.018;2023-05-10T02:15:55;8.45;;;3.22;;
50367;SDS011;36281;34.132;-118.018;2023-05-10T02:18:28;10.10;;;3.53;;
50367;SDS011;36281;34.132;-118.018;2023-05-10T02:20:59;5.53;;;2.80;;
50367;SDS011;36281;34.132;-118.018;2023-05-10T02:23:30;6.10;;;3.28;;
50367;SDS011;36281;34.132;-118.018;2023-05-10T02:26:00;6.45;;;2.97;;
50367;SDS011;36281;34.132;-118.018;2023-05-10T02:28:30;15.38;;;3.63;;
50367;SDS011;36281;34.132;-118.018;2023-05-10T02:31:01;5.90;;;2.70;;
50367;SDS011;36281;34.132;-118.018;2023-05-10T02:33:33;9.18;;;3.17;;
50367;SDS011;36281;34.132;-118.018;2023-05-10T02:36:03;4.65;;;2.53;;
50367;SDS011;36281;34.132;-118.018;2023-05-10T02:38:33;5.80;;;2.60;;
50367;SDS011;36281;34.132;-118.018;2023-05-10T02:41:03;6.50;;;2.50;;
50367;SDS011;36281;34.132;-118.018;2023-05-10T02:43:37;6.55;;;2.85;;
50367;SDS011;36281;34.132;-118.018;2023-05-10T02:46:07;6.40;;;2.80;;
50367;SDS011;36281;34.132;-118.018;2023-05-10T02:48:38;5.70;;;2.60;;
50367;SDS011;36281;34.132;-118.018;2023-05-10T02:51:07;8.00;;;2.95;;
50367;SDS011;36281;34.132;-118.018;2023-05-10T02:53:40;7.25;;;2.80;;
50367;SDS011;36281;34.132;-118.018;2023-05-10T02:56:15;6.00;;;2.63;;
50367;SDS011;36281;34.132;-118.018;2023-05-10T02:58:48;6.18;;;2.90;;
50367;SDS011;36281;34.132;-118.018;2023-05-10T03:01:18;7.85;;;3.13;;
50367;SDS011;36281;34.132;-118.018;2023-05-10T03:03:48;7.40;;;2.80;;
50367;SDS011;36281;34.132;-118.018;2023-05-10T03:06:18;8.20;;;3.15;;
50367;SDS011;36281;34.132;-118.018;2023-05-10T03:08:47;7.80;;;3.25;;
50367;SDS011;36281;34.132;-118.018;2023-05-10T03:11:23;7.97;;;2.97;;
50367;SDS011;36281;34.132;-118.018;2023-05-10T03:14:09;54.80;;;6.85;;
50367;SDS011;36281;34.132;-118.018;2023-05-10T03:16:45;7.95;;;2.83;;
50367;SDS011;36281;34.132;-118.018;2023-05-10T03:19:22;11.63;;;3.22;;
50367;SDS011;36281;34.132;-118.018;2023-05-10T03:21:55;17.40;;;4.03;;
50367;SDS011;36281;34.132;-118.018;2023-05-10T03:24:31;8.57;;;3.55;;
50367;SDS011;36281;34.132;-118.018;2023-05-10T03:27:04;8.05;;;2.75;;
50367;SDS011;36281;34.132;-118.018;2023-05-10T03:29:34;10.43;;;3.15;;
50367;SDS011;36281;34.132;-118.018;2023-05-10T03:32:04;6.85;;;3.30;;
50367;SDS011;36281;34.132;-118.018;2023-05-10T03:34:35;7.45;;;2.75;;
50367;SDS011;36281;34.132;-118.018;2023-05-10T03:37:10;8.45;;;2.88;;
50367;SDS011;36281;34.132;-118.018;2023-05-10T03:39:39;7.47;;;2.90;;
50367;SDS011;36281;34.132;-118.018;2023-05-10T03:42:08;8.00;;;2.75;;
50367;SDS011;36281;34.132;-118.018;2023-05-10T03:44:39;7.07;;;2.80;;
50367;SDS011;36281;34.132;-118.018;2023-05-10T03:47:08;7.82;;;2.67;;
50367;SDS011;36281;34.132;-118.018;2023-05-10T03:49:39;7.35;;;2.58;;
50367;SDS011;36281;34.132;-118.018;2023-05-10T03:52:08;5.55;;;2.75;;
50367;SDS011;36281;34.132;-118.018;2023-05-10T03:54:37;11.32;;;3.30;;
50367;SDS011;36281;34.132;-118.018;2023-05-10T03:57:06;8.88;;;2.83;;
50367;SDS011;36281;34.132;-118.018;2023-05-10T03:59:35;8.68;;;2.90;;
50367;SDS011;36281;34.132;-118.018;2023-05-10T04:02:04;8.23;;;2.80;;
50367;SDS011;36281;34.132;-118.018;2023-05-10T04:04:33;10.15;;;3.00;;
50367;SDS011;36281;34.132;-118.018;2023-05-10T04:07:04;7.80;;;2.90;;
50367;SDS011;36281;34.132;-118.018;2023-05-10T04:09:33;6.63;;;2.63;;
50367;SDS011;36281;34.132;-118.018;2023-05-10T04:12:02;5.10;;;2.42;;
50367;SDS011;36281;34.132;-118.018;2023-05-10T04:14:34;5.57;;;3.03;;
50367;SDS011;36281;34.132;-118.018;2023-05-10T04:17:03;10.68;;;2.80;;
50367;SDS011;36281;34.132;-118.018;2023-05-10T04:19:33;5.15;;;2.30;;
50367;SDS011;36281;34.132;-118.018;2023-05-10T04:22:04;7.47;;;2.80;;
50367;SDS011;36281;34.132;-118.018;2023-05-10T04:24:33;5.50;;;2.50;;
50367;SDS011;36281;34.132;-118.018;2023-05-10T04:27:02;8.00;;;3.10;;
50367;SDS011;36281;34.132;-118.018;2023-05-10T04:29:31;6.10;;;2.78;;
50367;SDS011;36281;34.132;-118.018;2023-05-10T04:32:00;6.85;;;2.67;;
50367;SDS011;36281;34.132;-118.018;2023-05-10T04:34:30;8.27;;;3.40;;
50367;SDS011;36281;34.132;-118.018;2023-05-10T04:37:02;9.40;;;3.60;;
50367;SDS011;36281;34.132;-118.018;2023-05-10T04:39:33;11.25;;;2.97;;
50367;SDS011;36281;34.132;-118.018;2023-05-10T04:42:02;7.95;;;3.45;;
50367;SDS011;36281;34.132;-118.018;2023-05-10T04:44:33;8.77;;;3.05;;
50367;SDS011;36281;34.132;-118.018;2023-05-10T04:47:03;7.65;;;3.75;;
50367;SDS011;36281;34.132;-118.018;2023-05-10T04:49:32;11.25;;;3.85;;
50367;SDS011;36281;34.132;-118.018;2023-05-10T04:52:01;8.45;;;3.13;;
50367;SDS011;36281;34.132;-118.018;2023-05-10T04:54:31;8.80;;;3.53;;
50367;SDS011;36281;34.132;-118.018;2023-05-10T04:57:00;10.65;;;3.58;;
50367;SDS011;36281;34.132;-118.018;2023-05-10T04:59:29;10.55;;;3.35;;
50367;SDS011;36281;34.132;-118.018;2023-05-10T05:01:59;9.30;;;3.42;;
50367;SDS011;36281;34.132;-118.018;2023-05-10T05:04:29;9.40;;;3.28;;
50367;SDS011;36281;34.132;-118.018;2023-05-10T05:06:59;9.75;;;3.63;;
50367;SDS011;36281;34.132;-118.018;2023-05-10T05:09:28;12.13;;;3.67;;
50367;SDS011;36281;34.132;-118.018;2023-05-10T05:11:58;10.50;;;3.88;;
50367;SDS011;36281;34.132;-118.018;2023-05-10T05:14:28;17.98;;;3.70;;
50367;SDS011;36281;34.132;-118.018;2023-05-10T05:16:57;9.80;;;3.60;;
50367;SDS011;36281;34.132;-118.018;2023-05-10T05:19:26;14.95;;;3.67;;
50367;SDS011;36281;34.132;-118.018;2023-05-10T05:21:55;12.10;;;3.67;;
50367;SDS011;36281;34.132;-118.018;2023-05-10T05:24:24;10.68;;;3.80;;
50367;SDS011;36281;34.132;-118.018;2023-05-10T05:26:53;11.18;;;3.40;;
50367;SDS011;36281;34.132;-118.018;2023-05-10T05:29:24;12.98;;;3.58;;
50367;SDS011;36281;34.132;-118.018;2023-05-10T05:31:53;9.90;;;3.40;;
50367;SDS011;36281;34.132;-118.018;2023-05-10T05:34:22;12.65;;;3.83;;
50367;SDS011;36281;34.132;-118.018;2023-05-10T05:36:52;13.15;;;3.95;;
50367;SDS011;36281;34.132;-118.018;2023-05-10T05:39:21;9.68;;;3.22;;
50367;SDS011;36281;34.132;-118.018;2023-05-10T05:41:50;12.88;;;3.80;;
50367;SDS011;36281;34.132;-118.018;2023-05-10T05:44:19;8.98;;;3.42;;
50367;SDS011;36281;34.132;-118.018;2023-05-10T05:46:50;11.18;;;3.53;;
50367;SDS011;36281;34.132;-118.018;2023-05-10T05:49:19;10.30;;;3.58;;
50367;SDS011;36281;34.132;-118.018;2023-05-10T05:51:48;11.68;;;3.75;;
50367;SDS011;36281;34.132;-118.018;2023-05-10T05:54:18;14.10;;;3.95;;
50367;SDS011;36281;34.132;-118.018;2023-05-10T05:56:47;11.85;;;3.78;;
50367;SDS011;36281;34.132;-118.018;2023-05-10T05:59:16;11.02;;;4.00;;
50367;SDS011;36281;34.132;-118.018;2023-05-10T06:01:45;11.68;;;3.95;;
50367;SDS011;36281;34.132;-118.018;2023-05-10T06:04:15;13.95;;;4.30;;
50367;SDS011;36281;34.132;-118.018;2023-05-10T06:06:45;11.05;;;3.80;;
50367;SDS011;36281;34.132;-118.018;2023-05-10T06:09:14;10.40;;;4.10;;
50367;SDS011;36281;34.132;-118.018;2023-05-10T06:11:43;14.07;;;4.28;;
50367;SDS011;36281;34.132;-118.018;2023-05-10T06:14:12;10.68;;;3.90;;
50367;SDS011;36281;34.132;-118.018;2023-05-10T06:16:41;9.60;;;3.92;;
50367;SDS011;36281;34.132;-118.018;2023-05-10T06:19:11;14.57;;;4.47;;
50367;SDS011;36281;34.132;-118.018;2023-05-10T06:21:41;11.40;;;3.67;;
50367;SDS011;36281;34.132;-118.018;2023-05-10T06:24:10;10.20;;;3.78;;
50367;SDS011;36281;34.132;-118.018;2023-05-10T06:26:39;8.57;;;3.65;;
50367;SDS011;36281;34.132;-118.018;2023-05-10T06:29:08;14.27;;;4.15;;
50367;SDS011;36281;34.132;-118.018;2023-05-10T06:31:37;10.95;;;4.05;;
50367;SDS011;36281;34.132;-118.018;2023-05-10T06:34:07;11.82;;;4.30;;
50367;SDS011;36281;34.132;-118.018;2023-05-10T06:36:36;13.15;;;4.22;;
50367;SDS011;36281;34.132;-118.018;2023-05-10T06:39:06;12.40;;;4.32;;
50367;SDS011;36281;34.132;-118.018;2023-05-10T06:41:35;12.20;;;4.30;;
50367;SDS011;36281;34.132;-118.018;2023-05-10T06:44:04;12.57;;;4.28;;
50367;SDS011;36281;34.132;-118.018;2023-05-10T06:46:33;9.93;;;4.75;;
50367;SDS011;36281;34.132;-118.018;2023-05-10T06:49:02;11.25;;;3.75;;
50367;SDS011;36281;34.132;-118.018;2023-05-10T06:51:32;8.18;;;3.65;;
50367;SDS011;36281;34.132;-118.018;2023-05-10T06:54:01;9.70;;;3.88;;
50367;SDS011;36281;34.132;-118.018;2023-05-10T06:56:32;13.30;;;3.92;;
50367;SDS011;36281;34.132;-118.018;2023-05-10T06:59:01;11.13;;;3.83;;
50367;SDS011;36281;34.132;-118.018;2023-05-10T07:01:30;8.88;;;3.90;;
50367;SDS011;36281;34.132;-118.018;2023-05-10T07:03:59;12.50;;;4.18;;
50367;SDS011;36281;34.132;-118.018;2023-05-10T07:06:29;13.57;;;4.35;;
50367;SDS011;36281;34.132;-118.018;2023-05-10T07:09:00;11.57;;;3.78;;
50367;SDS011;36281;34.132;-118.018;2023-05-10T07:11:29;13.55;;;4.68;;
50367;SDS011;36281;34.132;-118.018;2023-05-10T07:14:00;8.60;;;3.80;;
50367;SDS011;36281;34.132;-118.018;2023-05-10T07:16:29;10.35;;;3.92;;
50367;SDS011;36281;34.132;-118.018;2023-05-10T07:18:58;11.52;;;4.25;;
50367;SDS011;36281;34.132;-118.018;2023-05-10T07:21:28;10.63;;;4.63;;
50367;SDS011;36281;34.132;-118.018;2023-05-10T07:23:57;11.98;;;3.92;;
50367;SDS011;36281;34.132;-118.018;2023-05-10T07:26:27;10.27;;;3.42;;
50367;SDS011;36281;34.132;-118.018;2023-05-10T07:28:58;10.20;;;4.32;;
50367;SDS011;36281;34.132;-118.018;2023-05-10T07:31:27;14.52;;;3.92;;
50367;SDS011;36281;34.132;-118.018;2023-05-10T07:33:56;12.65;;;4.18;;
50367;SDS011;36281;34.132;-118.018;2023-05-10T07:36:25;11.48;;;4.22;;
50367;SDS011;36281;34.132;-118.018;2023-05-10T07:38:55;14.25;;;4.22;;
50367;SDS011;36281;34.132;-118.018;2023-05-10T07:41:25;13.60;;;4.10;;
50367;SDS011;36281;34.132;-118.018;2023-05-10T07:43:54;10.70;;;3.60;;
50367;SDS011;36281;34.132;-118.018;2023-05-10T07:46:25;11.18;;;3.75;;
50367;SDS011;36281;34.132;-118.018;2023-05-10T07:48:54;7.43;;;3.22;;
50367;SDS011;36281;34.132;-118.018;2023-05-10T07:51:23;11.20;;;4.00;;
50367;SDS011;36281;34.132;-118.018;2023-05-10T07:53:52;14.23;;;4.28;;
50367;SDS011;36281;34.132;-118.018;2023-05-10T07:56:22;9.10;;;3.85;;
50367;SDS011;36281;34.132;-118.018;2023-05-10T07:58:54;10.23;;;3.70;;
50367;SDS011;36281;34.132;-118.018;2023-05-10T08:01:26;9.40;;;3.55;;
50367;SDS011;36281;34.132;-118.018;2023-05-10T08:03:58;10.32;;;3.90;;
50367;SDS011;36281;34.132;-118.018;2023-05-10T08:06:27;14.43;;;4.05;;
50367;SDS011;36281;34.132;-118.018;2023-05-10T08:08:57;9.80;;;3.75;;
50367;SDS011;36281;34.132;-118.018;2023-05-10T08:11:26;14.00;;;4.03;;
50367;SDS011;36281;34.132;-118.018;2023-05-10T08:13:55;10.02;;;4.65;;
50367;SDS011;36281;34.132;-118.018;2023-05-10T08:16:26;9.95;;;3.65;;
50367;SDS011;36281;34.132;-118.018;2023-05-10T08:18:56;10.00;;;4.03;;
50367;SDS011;36281;34.132;-118.018;2023-05-10T08:21:25;8.80;;;3.90;;
50367;SDS011;36281;34.132;-118.018;2023-05-10T08:23:54;14.35;;;4.35;;
50367;SDS011;36281;34.132;-118.018;2023-05-10T08:26:23;11.65;;;4.07;;
50367;SDS011;36281;34.132;-118.018;2023-05-10T08:28:53;11.10;;;4.55;;
50367;SDS011;36281;34.132;-118.018;2023-05-10T08:31:22;14.40;;;4.20;;
50367;SDS011;36281;34.132;-118.018;2023-05-10T08:33:53;12.32;;;4.00;;
50367;SDS011;36281;34.132;-118.018;2023-05-10T08:36:22;13.05;;;3.70;;
50367;SDS011;36281;34.132;-118.018;2023-05-10T08:38:52;12.07;;;3.55;;
50367;SDS011;36281;34.132;-118.018;2023-05-10T08:41:22;10.60;;;4.28;;
50367;SDS011;36281;34.132;-118.018;2023-05-10T08:43:53;9.68;;;4.07;;
50367;SDS011;36281;34.132;-118.018;2023-05-10T08:46:23;12.90;;;4.03;;
50367;SDS011;36281;34.132;-118.018;2023-05-10T08:48:53;13.65;;;4.57;;
50367;SDS011;36281;34.132;-118.018;2023-05-10T08:51:25;13.75;;;4.15;;
50367;SDS011;36281;34.132;-118.018;2023-05-10T08:53:55;12.60;;;4.13;;
50367;SDS011;36281;34.132;-118.018;2023-05-10T08:56:24;12.43;;;4.20;;
50367;SDS011;36281;34.132;-118.018;2023-05-10T08:58:54;17.67;;;4.90;;
50367;SDS011;36281;34.132;-118.018;2023-05-10T09:01:23;9.32;;;4.03;;
50367;SDS011;36281;34.132;-118.018;2023-05-10T09:03:55;12.35;;;4.72;;
50367;SDS011;36281;34.132;-118.018;2023-05-10T09:06:24;14.23;;;4.00;;
50367;SDS011;36281;34.132;-118.018;2023-05-10T09:08:53;11.52;;;3.90;;
50367;SDS011;36281;34.132;-118.018;2023-05-10T09:11:22;11.80;;;4.05;;
50367;SDS011;36281;34.132;-118.018;2023-05-10T09:13:52;11.18;;;4.03;;
50367;SDS011;36281;34.132;-118.018;2023-05-10T09:16:21;12.88;;;4.15;;
50367;SDS011;36281;34.132;-118.018;2023-05-10T09:18:51;13.82;;;4.00;;
50367;SDS011;36281;34.132;-118.018;2023-05-10T09:21:22;14.05;;;4.25;;
50367;SDS011;36281;34.132;-118.018;2023-05-10T09:23:51;13.35;;;3.92;;
50367;SDS011;36281;34.132;-118.018;2023-05-10T09:26:24;13.65;;;4.38;;
50367;SDS011;36281;34.132;-118.018;2023-05-10T09:28:53;10.43;;;3.95;;
50367;SDS011;36281;34.132;-118.018;2023-05-10T09:31:23;12.70;;;4.10;;
50367;SDS011;36281;34.132;-118.018;2023-05-10T09:34:10;10.02;;;4.18;;
50367;SDS011;36281;34.132;-118.018;2023-05-10T09:36:55;10.98;;;4.18;;
50367;SDS011;36281;34.132;-118.018;2023-05-10T09:39:31;12.05;;;4.10;;
50367;SDS011;36281;34.132;-118.018;2023-05-10T09:42:02;8.63;;;3.75;;
50367;SDS011;36281;34.132;-118.018;2023-05-10T09:44:32;14.18;;;4.07;;
50367;SDS011;36281;34.132;-118.018;2023-05-10T09:47:02;11.88;;;4.07;;
50367;SDS011;36281;34.132;-118.018;2023-05-10T09:49:31;17.63;;;4.45;;
50367;SDS011;36281;34.132;-118.018;2023-05-10T09:52:03;10.32;;;4.10;;
50367;SDS011;36281;34.132;-118.018;2023-05-10T09:54:32;8.32;;;3.67;;
50367;SDS011;36281;34.132;-118.018;2023-05-10T09:57:02;9.15;;;3.45;;
50367;SDS011;36281;34.132;-118.018;2023-05-10T09:59:32;9.40;;;3.70;;
50367;SDS011;36281;34.132;-118.018;2023-05-10T10:02:03;8.40;;;3.60;;
50367;SDS011;36281;34.132;-118.018;2023-05-10T10:04:32;13.18;;;4.25;;
50367;SDS011;36281;34.132;-118.018;2023-05-10T10:07:09;13.80;;;4.07;;
50367;SDS011;36281;34.132;-118.018;2023-05-10T10:09:38;6.63;;;2.88;;
50367;SDS011;36281;34.132;-118.018;2023-05-10T10:12:08;10.63;;;3.75;;
50367;SDS011;36281;34.132;-118.018;2023-05-10T10:14:37;9.40;;;3.97;;
50367;SDS011;36281;34.132;-118.018;2023-05-10T10:17:06;12.18;;;4.30;;
50367;SDS011;36281;34.132;-118.018;2023-05-10T10:19:37;11.00;;;4.18;;
50367;SDS011;36281;34.132;-118.018;2023-05-10T10:22:06;9.18;;;3.47;;
50367;SDS011;36281;34.132;-118.018;2023-05-10T10:24:40;7.68;;;3.45;;
50367;SDS011;36281;34.132;-118.018;2023-05-10T10:27:12;8.07;;;4.05;;
50367;SDS011;36281;34.132;-118.018;2023-05-10T10:29:51;14.68;;;4.03;;
50367;SDS011;36281;34.132;-118.018;2023-05-10T10:32:30;13.80;;;4.35;;
50367;SDS011;36281;34.132;-118.018;2023-05-10T10:35:08;8.63;;;3.60;;
50367;SDS011;36281;34.132;-118.018;2023-05-10T10:37:45;12.95;;;3.97;;
50367;SDS011;36281;34.132;-118.018;2023-05-10T10:40:25;12.27;;;3.85;;
50367;SDS011;36281;34.132;-118.018;2023-05-10T10:42:56;8.55;;;3.63;;
50367;SDS011;36281;34.132;-118.018;2023-05-10T10:45:48;10.23;;;3.60;;
50367;SDS011;36281;34.132;-118.018;2023-05-10T10:48:47;9.20;;;3.70;;
50367;SDS011;36281;34.132;-118.018;2023-05-10T10:51:18;10.88;;;3.58;;
50367;SDS011;36281;34.132;-118.018;2023-05-10T10:53:49;12.80;;;4.38;;
50367;SDS011;36281;34.132;-118.018;2023-05-10T10:56:18;12.68;;;4.38;;
50367;SDS011;36281;34.132;-118.018;2023-05-10T10:58:51;11.95;;;4.43;;
50367;SDS011;36281;34.132;-118.018;2023-05-10T11:01:21;12.35;;;4.30;;
50367;SDS011;36281;34.132;-118.018;2023-05-10T11:06:47;12.00;;;4.22;;
50367;SDS011;36281;34.132;-118.018;2023-05-10T11:09:18;11.75;;;4.45;;
50367;SDS011;36281;34.132;-118.018;2023-05-10T11:11:49;9.63;;;4.07;;
50367;SDS011;36281;34.132;-118.018;2023-05-10T11:14:20;13.27;;;4.03;;
50367;SDS011;36281;34.132;-118.018;2023-05-10T11:16:50;12.05;;;4.40;;
50367;SDS011;36281;34.132;-118.018;2023-05-10T11:19:19;12.48;;;3.63;;
50367;SDS011;36281;34.132;-118.018;2023-05-10T11:21:49;11.25;;;4.07;;
50367;SDS011;36281;34.132;-118.018;2023-05-10T11:24:26;12.88;;;4.40;;
50367;SDS011;36281;34.132;-118.018;2023-05-10T11:26:56;13.07;;;4.10;;
50367;SDS011;36281;34.132;-118.018;2023-05-10T11:29:25;13.43;;;4.25;;
50367;SDS011;36281;34.132;-118.018;2023-05-10T11:31:56;11.75;;;4.13;;
50367;SDS011;36281;34.132;-118.018;2023-05-10T11:34:26;10.15;;;3.75;;
50367;SDS011;36281;34.132;-118.018;2023-05-10T11:36:57;12.38;;;3.63;;
50367;SDS011;36281;34.132;-118.018;2023-05-10T11:39:29;13.63;;;4.35;;
50367;SDS011;36281;34.132;-118.018;2023-05-10T11:41:59;10.73;;;4.18;;
50367;SDS011;36281;34.132;-118.018;2023-05-10T11:44:29;11.20;;;4.03;;
50367;SDS011;36281;34.132;-118.018;2023-05-10T11:46:59;11.25;;;4.07;;
50367;SDS011;36281;34.132;-118.018;2023-05-10T11:49:28;12.52;;;3.78;;
50367;SDS011;36281;34.132;-118.018;2023-05-10T11:52:03;9.85;;;3.75;;
50367;SDS011;36281;34.132;-118.018;2023-05-10T11:54:35;14.68;;;4.18;;
50367;SDS011;36281;34.132;-118.018;2023-05-10T11:57:04;9.30;;;4.03;;
50367;SDS011;36281;34.132;-118.018;2023-05-10T11:59:33;12.30;;;3.60;;
50367;SDS011;36281;34.132;-118.018;2023-05-10T12:02:02;8.95;;;3.60;;
50367;SDS011;36281;34.132;-118.018;2023-05-10T12:04:31;10.27;;;3.95;;
50367;SDS011;36281;34.132;-118.018;2023-05-10T12:07:01;8.48;;;3.25;;
50367;SDS011;36281;34.132;-118.018;2023-05-10T12:09:30;7.70;;;3.33;;
50367;SDS011;36281;34.132;-118.018;2023-05-10T12:12:11;13.02;;;3.88;;
50367;SDS011;36281;34.132;-118.018;2023-05-10T12:14:44;8.52;;;3.58;;
50367;SDS011;36281;34.132;-118.018;2023-05-10T12:17:18;12.13;;;3.53;;
50367;SDS011;36281;34.132;-118.018;2023-05-10T12:19:47;9.30;;;3.40;;
50367;SDS011;36281;34.132;-118.018;2023-05-10T12:22:20;12.43;;;3.50;;
50367;SDS011;36281;34.132;-118.018;2023-05-10T12:24:50;10.45;;;3.50;;
50367;SDS011;36281;34.132;-118.018;2023-05-10T12:27:21;12.40;;;4.72;;
50367;SDS011;36281;34.132;-118.018;2023-05-10T12:30:03;7.75;;;3.28;;
50367;SDS011;36281;34.132;-118.018;2023-05-10T12:32:39;10.25;;;3.60;;
50367;SDS011;36281;34.132;-118.018;2023-05-10T12:35:08;10.35;;;3.38;;
50367;SDS011;36281;34.132;-118.018;2023-05-10T12:37:37;11.43;;;3.45;;
50367;SDS011;36281;34.132;-118.018;2023-05-10T12:40:07;8.75;;;3.60;;
50367;SDS011;36281;34.132;-118.018;2023-05-10T12:42:40;13.98;;;3.40;;
50367;SDS011;36281;34.132;-118.018;2023-05-10T12:45:09;8.82;;;3.58;;
50367;SDS011;36281;34.132;-118.018;2023-05-10T12:47:38;9.35;;;3.38;;
50367;SDS011;36281;34.132;-118.018;2023-05-10T12:50:10;10.57;;;3.95;;
50367;SDS011;36281;34.132;-118.018;2023-05-10T12:52:39;8.43;;;3.45;;
50367;SDS011;36281;34.132;-118.018;2023-05-10T12:55:08;10.45;;;3.30;;
50367;SDS011;36281;34.132;-118.018;2023-05-10T12:57:37;7.35;;;3.40;;
50367;SDS011;36281;34.132;-118.018;2023-05-10T13:00:08;8.85;;;3.10;;
50367;SDS011;36281;34.132;-118.018;2023-05-10T13:02:38;10.10;;;3.25;;
50367;SDS011;36281;34.132;-118.018;2023-05-10T13:05:07;10.93;;;3.72;;
50367;SDS011;36281;34.132;-118.018;2023-05-10T13:07:36;11.85;;;3.58;;
50367;SDS011;36281;34.132;-118.018;2023-05-10T13:10:06;11.88;;;3.75;;
50367;SDS011;36281;34.132;-118.018;2023-05-10T13:12:35;9.55;;;3.42;;
50367;SDS011;36281;34.132;-118.018;2023-05-10T13:15:06;8.73;;;3.20;;
50367;SDS011;36281;34.132;-118.018;2023-05-10T13:17:36;7.70;;;3.72;;
50367;SDS011;36281;34.132;-118.018;2023-05-10T13:20:06;10.43;;;3.13;;
50367;SDS011;36281;34.132;-118.018;2023-05-10T13:22:37;9.32;;;3.30;;
50367;SDS011;36281;34.132;-118.018;2023-05-10T13:25:06;7.15;;;3.30;;
50367;SDS011;36281;34.132;-118.018;2023-05-10T13:27:36;12.52;;;3.60;;
50367;SDS011;36281;34.132;-118.018;2023-05-10T13:30:08;8.45;;;3.40;;
50367;SDS011;36281;34.132;-118.018;2023-05-10T13:32:39;7.40;;;3.08;;
50367;SDS011;36281;34.132;-118.018;2023-05-10T13:35:08;7.22;;;3.28;;
50367;SDS011;36281;34.132;-118.018;2023-05-10T13:37:37;9.50;;;3.20;;
50367;SDS011;36281;34.132;-118.018;2023-05-10T13:40:06;8.68;;;2.90;;
50367;SDS011;36281;34.132;-118.018;2023-05-10T13:42:36;8.65;;;3.20;;
50367;SDS011;36281;34.132;-118.018;2023-05-10T13:45:07;9.88;;;3.53;;
50367;SDS011;36281;34.132;-118.018;2023-05-10T13:47:39;9.23;;;3.50;;
50367;SDS011;36281;34.132;-118.018;2023-05-10T13:50:08;7.75;;;3.10;;
50367;SDS011;36281;34.132;-118.018;2023-05-10T13:52:38;10.43;;;3.60;;
50367;SDS011;36281;34.132;-118.018;2023-05-10T13:55:07;9.73;;;3.40;;
50367;SDS011;36281;34.132;-118.018;2023-05-10T13:57:36;10.93;;;4.15;;
50367;SDS011;36281;34.132;-118.018;2023-05-10T14:00:08;10.13;;;3.95;;
50367;SDS011;36281;34.132;-118.018;2023-05-10T14:02:37;8.90;;;3.80;;
50367;SDS011;36281;34.132;-118.018;2023-05-10T14:05:07;7.10;;;3.35;;
50367;SDS011;36281;34.132;-118.018;2023-05-10T14:07:36;10.85;;;3.58;;
50367;SDS011;36281;34.132;-118.018;2023-05-10T14:10:06;8.75;;;3.80;;
50367;SDS011;36281;34.132;-118.018;2023-05-10T14:12:35;8.48;;;3.70;;
50367;SDS011;36281;34.132;-118.018;2023-05-10T14:15:05;10.10;;;3.88;;
50367;SDS011;36281;34.132;-118.018;2023-05-10T14:17:38;7.97;;;3.22;;
50367;SDS011;36281;34.132;-118.018;2023-05-10T14:20:07;11.85;;;3.53;;
50367;SDS011;36281;34.132;-118.018;2023-05-10T14:22:37;10.00;;;3.90;;
50367;SDS011;36281;34.132;-118.018;2023-05-10T14:25:06;13.00;;;3.90;;
50367;SDS011;36281;34.132;-118.018;2023-05-10T14:27:35;10.75;;;3.63;;
50367;SDS011;36281;34.132;-118.018;2023-05-10T14:30:05;9.52;;;3.40;;
50367;SDS011;36281;34.132;-118.018;2023-05-10T14:32:37;11.02;;;3.50;;
50367;SDS011;36281;34.132;-118.018;2023-05-10T14:35:06;9.65;;;3.28;;